Vinita, Oklahoma
Current Conditions -  °F | °C
As of 9:35 AM on Monday 22 Dec 2014 (Local Time) from KGMJ Reporting Station
Haze Haze  
Wind Chill: 50°   Ceiling: 900
Heat Index: 50°   Visibility: 4mi
Dew Point: 50°   Wind: 5mph
Humidity: 100%   Direction: 170°S
Pressure: 29.62"   Gusts: NA
Location:  36.64°N, 95.15°W
Report Text: KGMJ 221535Z AUTO 17004KT 4SM BR BKN009 OVC014 10/10 A2962 RMK AO2
Loading
Personal Weather Stations






























Interactive Weather Map New forecast layout! Learn more

10-Day Weather Forecast

Advertisements
Track Severe Weather on mobile